Terminal Aerodrome Forecast
Issued by NWS Cleveland, OH

Home | Current Version | Previous Version | Graphics & Text | Print | Product List | Glossary Off
Versions: 1 2 3 4 5 6 7 8 9 10 11 12 13 14 15

010
FTUS41 KCLE 230520
TAFYNG
TAF
KYNG 230520Z 2306/2406 00000KT P6SM SKC
     FM231600 12007KT P6SM BKN250
     FM232300 13006KT P6SM OVC100=

USA.gov is the U.S. government's official web portal to all federal, state and local government web resources and services.